createdAt,value
2022-07-31T00:00:21.573Z,22.10
2022-07-31T00:01:21.572Z,22.16
2022-07-31T00:02:21.552Z,22.13
2022-07-31T00:03:21.642Z,22.09
2022-07-31T00:04:21.559Z,22.06
2022-07-31T00:05:21.510Z,22.12
2022-07-31T00:06:21.514Z,22.07
2022-07-31T00:07:21.487Z,22.02
2022-07-31T00:08:21.478Z,22.04
2022-07-31T00:09:52.695Z,21.97
2022-07-31T00:10:22.459Z,22.06
2022-07-31T00:11:21.457Z,22.04
2022-07-31T00:12:21.437Z,21.98
2022-07-31T00:13:56.397Z,22.04
2022-07-31T00:14:22.417Z,21.95
2022-07-31T00:15:21.398Z,21.82
2022-07-31T00:16:21.445Z,21.92
2022-07-31T00:17:21.382Z,21.90
2022-07-31T00:18:21.370Z,21.82
2022-07-31T00:19:21.355Z,21.90
2022-07-31T00:20:21.343Z,21.78
2022-07-31T00:21:21.345Z,21.88
2022-07-31T00:22:21.324Z,21.85
2022-07-31T00:23:21.315Z,21.82
2022-07-31T00:24:21.297Z,21.85
2022-07-31T00:25:21.288Z,21.71
2022-07-31T00:26:21.290Z,21.74
2022-07-31T00:27:21.264Z,21.71
2022-07-31T00:28:21.281Z,21.61
2022-07-31T00:29:21.244Z,21.71
2022-07-31T00:30:21.228Z,21.66
2022-07-31T00:31:21.237Z,21.64
2022-07-31T00:32:21.208Z,21.69
2022-07-31T00:33:21.259Z,21.69
2022-07-31T00:34:21.234Z,21.59
2022-07-31T00:35:21.180Z,21.66
2022-07-31T00:36:21.185Z,21.53
2022-07-31T00:37:22.162Z,21.48
2022-07-31T00:38:28.340Z,21.57
2022-07-31T00:39:22.127Z,21.56
2022-07-31T00:40:21.122Z,21.48
2022-07-31T00:41:21.106Z,21.54
2022-07-31T00:42:21.111Z,21.42
2022-07-31T00:43:21.089Z,21.39
2022-07-31T00:44:21.073Z,21.46
2022-07-31T00:45:22.197Z,21.42
2022-07-31T00:46:22.047Z,21.42
2022-07-31T00:47:23.949Z,21.41
2022-07-31T00:48:21.025Z,21.36
2022-07-31T00:49:21.110Z,21.32
2022-07-31T00:50:21.023Z,21.29
2022-07-31T00:51:20.992Z,21.36
2022-07-31T00:52:21.023Z,21.30
2022-07-31T00:53:20.973Z,21.19
2022-07-31T00:54:23.081Z,21.24
2022-07-31T00:55:20.949Z,21.26
2022-07-31T00:56:20.942Z,21.14
2022-07-31T00:57:20.947Z,21.17
2022-07-31T00:58:20.945Z,21.13
2022-07-31T00:59:24.744Z,21.16
2022-07-31T01:00:20.919Z,21.16
2022-07-31T01:01:20.947Z,21.14
2022-07-31T01:02:20.882Z,21.17
2022-07-31T01:03:20.857Z,21.13
2022-07-31T01:04:20.851Z,21.06
2022-07-31T01:05:20.842Z,21.14
2022-07-31T01:06:20.833Z,21.09
2022-07-31T01:07:20.824Z,21.01
2022-07-31T01:08:20.802Z,21.04
2022-07-31T01:09:20.796Z,21.05
2022-07-31T01:10:20.787Z,20.99
2022-07-31T01:11:20.773Z,21.06
2022-07-31T01:12:20.779Z,21.04
2022-07-31T01:13:20.748Z,20.95
2022-07-31T01:14:20.732Z,21.01
2022-07-31T01:15:20.729Z,20.95
2022-07-31T01:16:20.716Z,20.81
2022-07-31T01:17:20.714Z,20.80
2022-07-31T01:18:20.696Z,20.87
2022-07-31T01:19:20.685Z,20.74
2022-07-31T01:20:20.666Z,20.84
2022-07-31T01:21:20.665Z,20.81
2022-07-31T01:22:34.221Z,20.77
2022-07-31T01:23:21.637Z,20.80
2022-07-31T01:24:20.628Z,20.72
2022-07-31T01:25:20.617Z,20.74
2022-07-31T01:26:20.599Z,20.68
2022-07-31T01:27:20.613Z,20.81
2022-07-31T01:28:20.576Z,20.72
2022-07-31T01:29:20.574Z,20.81
2022-07-31T01:30:20.561Z,20.77
2022-07-31T01:31:28.068Z,20.69
2022-07-31T01:32:21.544Z,20.74
2022-07-31T01:33:21.532Z,20.72
2022-07-31T01:34:20.511Z,20.71
2022-07-31T01:35:20.505Z,20.68
2022-07-31T01:36:20.496Z,20.76
2022-07-31T01:37:20.495Z,20.72
2022-07-31T01:38:20.471Z,20.81
2022-07-31T01:39:20.459Z,20.79
2022-07-31T01:40:20.449Z,20.65
2022-07-31T01:41:20.438Z,20.61
2022-07-31T01:42:20.454Z,20.58
2022-07-31T01:43:20.416Z,20.62
2022-07-31T01:44:20.401Z,20.66
2022-07-31T01:45:20.392Z,20.64
2022-07-31T01:46:20.373Z,20.69
2022-07-31T01:47:20.394Z,20.62
2022-07-31T01:48:20.361Z,20.64
2022-07-31T01:49:20.379Z,20.54
2022-07-31T01:50:42.369Z,20.56
2022-07-31T01:51:21.324Z,20.53
2022-07-31T01:52:20.328Z,20.64
2022-07-31T01:53:20.309Z,20.69
2022-07-31T01:54:20.292Z,20.62
2022-07-31T01:55:20.274Z,20.61
2022-07-31T01:56:20.270Z,20.62
2022-07-31T01:57:20.275Z,20.61
2022-07-31T01:58:20.247Z,20.65
2022-07-31T01:59:22.795Z,20.65
2022-07-31T02:00:33.505Z,20.74
2022-07-31T02:01:26.714Z,20.59
2022-07-31T02:02:21.209Z,20.61
2022-07-31T02:03:20.193Z,20.66
2022-07-31T02:04:21.172Z,20.59
2022-07-31T02:05:20.176Z,20.59
2022-07-31T02:06:20.156Z,20.62
2022-07-31T02:07:20.159Z,20.68
2022-07-31T02:08:20.137Z,20.54
2022-07-31T02:09:20.122Z,20.58
2022-07-31T02:10:20.105Z,20.54
2022-07-31T02:11:20.110Z,20.68
2022-07-31T02:12:20.103Z,20.58
2022-07-31T02:13:21.079Z,20.62
2022-07-31T02:14:20.060Z,20.68
2022-07-31T02:15:20.049Z,20.65
2022-07-31T02:16:20.047Z,20.59
2022-07-31T02:17:22.258Z,20.53
2022-07-31T02:18:20.016Z,20.51
2022-07-31T02:19:20.013Z,20.50
2022-07-31T02:20:20.003Z,20.39
2022-07-31T02:21:19.986Z,20.38
2022-07-31T02:22:19.987Z,20.30
2022-07-31T02:23:19.970Z,20.34
2022-07-31T02:24:19.960Z,20.25
2022-07-31T02:25:19.946Z,20.30
2022-07-31T02:26:19.931Z,20.24
2022-07-31T02:27:57.905Z,20.31
2022-07-31T02:28:20.909Z,20.24
2022-07-31T02:32:49.342Z,20.27
2022-07-31T02:33:49.315Z,20.31
2022-07-31T02:34:49.313Z,20.25
2022-07-31T02:35:49.296Z,20.34
2022-07-31T02:36:49.289Z,20.16
2022-07-31T02:37:49.293Z,20.31
2022-07-31T02:38:49.265Z,20.27
2022-07-31T02:39:49.247Z,20.23
2022-07-31T02:40:49.239Z,20.10
2022-07-31T02:41:49.233Z,20.16
2022-07-31T02:42:49.235Z,20.25
2022-07-31T02:43:49.203Z,20.21
2022-07-31T02:44:49.200Z,20.27
2022-07-31T02:45:49.196Z,20.23
2022-07-31T02:46:49.178Z,20.28
2022-07-31T02:47:49.177Z,20.24
2022-07-31T02:48:49.205Z,20.20
2022-07-31T02:49:49.137Z,20.30
2022-07-31T02:50:49.132Z,20.24
2022-07-31T02:51:49.122Z,20.18
2022-07-31T02:52:49.118Z,20.20
2022-07-31T02:53:49.099Z,20.31
2022-07-31T02:54:49.084Z,20.25
2022-07-31T02:55:49.070Z,20.28
2022-07-31T02:56:49.057Z,20.20
2022-07-31T02:57:49.069Z,20.30
2022-07-31T02:58:49.035Z,20.21
2022-07-31T02:59:49.035Z,20.25
2022-07-31T03:00:49.058Z,20.25
2022-07-31T03:01:49.002Z,20.30
2022-07-31T03:02:49.010Z,20.33
2022-07-31T03:03:48.979Z,20.28
2022-07-31T03:04:48.972Z,20.27
2022-07-31T03:05:48.964Z,20.23
2022-07-31T03:06:48.953Z,20.24
2022-07-31T03:07:48.954Z,20.28
2022-07-31T03:08:48.924Z,20.33
2022-07-31T03:09:48.913Z,20.31
2022-07-31T03:10:48.909Z,20.38
2022-07-31T03:11:48.899Z,20.42
2022-07-31T03:12:48.887Z,20.41
2022-07-31T03:13:48.891Z,20.39
2022-07-31T03:14:48.864Z,20.42
2022-07-31T03:15:50.889Z,20.46
2022-07-31T03:16:48.846Z,20.47
2022-07-31T03:17:48.834Z,20.49
2022-07-31T03:18:48.838Z,20.53
2022-07-31T03:19:48.802Z,20.56
2022-07-31T03:20:48.796Z,20.54
2022-07-31T03:21:48.794Z,20.49
2022-07-31T03:22:48.775Z,20.62
2022-07-31T03:23:48.772Z,20.42
2022-07-31T03:24:48.745Z,20.54
2022-07-31T03:25:48.735Z,20.46
2022-07-31T03:26:48.730Z,20.47
2022-07-31T03:27:55.601Z,20.42
2022-07-31T03:28:49.715Z,20.49
2022-07-31T03:29:48.697Z,20.41
2022-07-31T03:30:48.679Z,20.49
2022-07-31T03:31:48.677Z,20.38
2022-07-31T03:32:48.663Z,20.34
2022-07-31T03:33:48.668Z,20.46
2022-07-31T03:34:48.633Z,20.43
2022-07-31T03:35:48.631Z,20.56
2022-07-31T03:36:48.618Z,20.50
2022-07-31T03:37:48.600Z,20.47
2022-07-31T03:38:50.636Z,20.56
2022-07-31T03:39:48.585Z,20.42
2022-07-31T03:40:48.581Z,20.53
2022-07-31T03:41:48.556Z,20.56
2022-07-31T03:42:48.544Z,20.46
2022-07-31T03:43:48.740Z,20.53
2022-07-31T03:44:48.527Z,20.43
2022-07-31T03:45:48.518Z,20.34
2022-07-31T03:46:48.506Z,20.49
2022-07-31T03:47:48.498Z,20.42
2022-07-31T03:48:48.636Z,20.39
2022-07-31T03:49:48.471Z,20.43
2022-07-31T03:50:48.463Z,20.33
2022-07-31T03:51:48.451Z,20.34
2022-07-31T03:52:48.439Z,20.41
2022-07-31T03:53:48.444Z,20.47
2022-07-31T03:54:48.410Z,20.27
2022-07-31T03:55:48.398Z,20.30
2022-07-31T03:56:48.596Z,20.39
2022-07-31T03:57:48.375Z,20.31
2022-07-31T03:58:52.494Z,20.30
2022-07-31T03:59:48.804Z,20.35
2022-07-31T04:00:48.348Z,20.28
2022-07-31T04:01:57.455Z,20.34
2022-07-31T04:02:49.376Z,20.35
2022-07-31T04:03:48.323Z,20.34
2022-07-31T04:04:48.307Z,20.34
2022-07-31T04:05:48.295Z,20.35
2022-07-31T04:06:48.280Z,20.30
2022-07-31T04:07:48.272Z,20.27
2022-07-31T04:08:48.263Z,20.25
2022-07-31T04:09:48.239Z,20.28
2022-07-31T04:10:48.235Z,20.34
2022-07-31T04:11:48.216Z,20.33
2022-07-31T04:12:48.211Z,20.38
2022-07-31T04:13:48.210Z,20.34
2022-07-31T04:14:48.180Z,20.33
2022-07-31T04:15:48.178Z,20.24
2022-07-31T04:16:48.159Z,20.42
2022-07-31T04:17:48.193Z,20.31
2022-07-31T04:18:51.012Z,20.35
2022-07-31T04:19:48.135Z,20.33
2022-07-31T04:20:48.119Z,20.35
2022-07-31T04:21:48.101Z,20.34
2022-07-31T04:22:49.337Z,20.35
2022-07-31T04:23:50.361Z,20.33
2022-07-31T04:24:48.084Z,20.33
2022-07-31T04:25:48.064Z,20.35
2022-07-31T04:26:48.050Z,20.34
2022-07-31T04:27:48.986Z,20.28
2022-07-31T04:28:48.020Z,20.31
2022-07-31T04:29:48.032Z,20.33
2022-07-31T04:30:47.998Z,20.30
2022-07-31T04:31:47.987Z,20.34
2022-07-31T04:32:47.984Z,20.28
2022-07-31T04:33:50.327Z,20.24
2022-07-31T04:34:48.972Z,20.35
2022-07-31T04:35:47.957Z,20.30
2022-07-31T04:36:47.928Z,20.30
2022-07-31T04:37:48.495Z,20.41
2022-07-31T04:38:47.924Z,20.31
2022-07-31T04:39:47.917Z,20.31
2022-07-31T04:40:47.882Z,20.38
2022-07-31T04:41:47.879Z,20.34
2022-07-31T04:42:47.862Z,20.35
2022-07-31T04:43:47.849Z,20.38
2022-07-31T04:44:47.859Z,20.33
2022-07-31T04:45:47.826Z,20.34
2022-07-31T04:46:47.823Z,20.41
2022-07-31T04:47:47.810Z,20.42
2022-07-31T04:48:49.232Z,20.33
2022-07-31T04:49:47.804Z,20.38
2022-07-31T04:50:47.768Z,20.41
2022-07-31T04:51:47.758Z,20.33
2022-07-31T04:52:47.745Z,20.39
2022-07-31T04:53:47.741Z,20.35
2022-07-31T04:54:47.748Z,20.47
2022-07-31T04:55:47.714Z,20.39
2022-07-31T04:56:47.706Z,20.49
2022-07-31T04:57:47.697Z,20.39
2022-07-31T04:58:47.684Z,20.43
2022-07-31T05:00:00.118Z,20.46
2022-07-31T05:00:48.654Z,20.35
2022-07-31T05:01:47.693Z,20.50
2022-07-31T05:02:47.682Z,20.61
2022-07-31T05:03:47.626Z,20.46
2022-07-31T05:04:47.631Z,20.54
2022-07-31T05:05:48.604Z,20.58
2022-07-31T05:06:47.585Z,20.53
2022-07-31T05:07:47.574Z,20.49
2022-07-31T05:08:47.573Z,20.65
2022-07-31T05:09:47.573Z,20.58
2022-07-31T05:10:47.546Z,20.71
2022-07-31T05:11:47.548Z,20.56
2022-07-31T05:12:47.525Z,20.56
2022-07-31T05:13:47.514Z,20.66
2022-07-31T05:14:47.531Z,20.71
2022-07-31T05:15:47.490Z,20.65
2022-07-31T05:16:47.485Z,20.71
2022-07-31T05:17:47.461Z,20.71
2022-07-31T05:18:47.454Z,20.71
2022-07-31T05:19:47.462Z,20.66
2022-07-31T05:20:47.437Z,20.80
2022-07-31T05:21:54.256Z,20.81
2022-07-31T05:22:48.406Z,20.68
2022-07-31T05:23:47.401Z,20.81
2022-07-31T05:24:47.403Z,20.83
2022-07-31T05:25:47.375Z,20.91
2022-07-31T05:26:47.368Z,20.87
2022-07-31T05:27:47.355Z,20.76
2022-07-31T05:28:47.340Z,20.86
2022-07-31T05:29:47.340Z,20.89
2022-07-31T05:30:47.321Z,21.05
2022-07-31T05:31:59.950Z,21.04
2022-07-31T05:32:48.296Z,21.09
2022-07-31T05:33:47.280Z,21.11
2022-07-31T05:34:47.286Z,21.19
2022-07-31T05:35:47.255Z,21.27
2022-07-31T05:36:47.248Z,21.35
2022-07-31T05:37:47.241Z,21.39
2022-07-31T05:38:47.241Z,21.38
2022-07-31T05:39:47.224Z,21.45
2022-07-31T05:40:47.211Z,21.51
2022-07-31T05:41:47.188Z,21.56
2022-07-31T05:42:47.180Z,21.53
2022-07-31T05:43:47.173Z,21.64
2022-07-31T05:44:47.169Z,21.59
2022-07-31T05:45:47.143Z,21.75
2022-07-31T05:46:47.142Z,21.81
2022-07-31T05:47:47.120Z,21.82
2022-07-31T05:48:47.143Z,21.81
2022-07-31T05:49:47.122Z,21.83
2022-07-31T05:50:47.089Z,21.85
2022-07-31T05:51:47.232Z,21.99
2022-07-31T05:52:47.065Z,21.94
2022-07-31T05:53:47.060Z,21.94
2022-07-31T05:54:47.066Z,22.09
2022-07-31T05:55:47.035Z,22.06
2022-07-31T05:56:47.023Z,22.01
2022-07-31T05:57:47.014Z,22.06
2022-07-31T05:58:48.457Z,22.14
2022-07-31T05:59:47.010Z,22.12
2022-07-31T06:00:46.983Z,22.07
2022-07-31T06:01:47.049Z,22.27
2022-07-31T06:02:47.033Z,22.25
2022-07-31T06:03:52.057Z,22.27
2022-07-31T06:04:47.953Z,22.31
2022-07-31T06:05:46.929Z,22.39
2022-07-31T06:06:46.915Z,22.34
2022-07-31T06:07:51.060Z,22.38
2022-07-31T06:08:46.897Z,22.39
2022-07-31T06:09:46.896Z,22.44
2022-07-31T06:10:46.874Z,22.43
2022-07-31T06:11:46.852Z,22.46
2022-07-31T06:12:46.844Z,22.47
2022-07-31T06:13:46.837Z,22.53
2022-07-31T06:14:46.846Z,22.49
2022-07-31T06:15:49.264Z,22.57
2022-07-31T06:16:46.806Z,22.64
2022-07-31T06:17:46.784Z,22.64
2022-07-31T06:18:46.774Z,22.68
2022-07-31T06:19:46.784Z,22.67
2022-07-31T06:20:46.753Z,22.82
2022-07-31T06:21:46.754Z,22.75
2022-07-31T06:22:46.746Z,22.86
2022-07-31T06:23:46.727Z,22.90
2022-07-31T06:24:46.734Z,22.90
2022-07-31T06:25:46.708Z,22.94
2022-07-31T06:26:46.690Z,22.92
2022-07-31T06:27:50.821Z,22.96
2022-07-31T06:28:49.205Z,22.93
2022-07-31T06:29:46.669Z,22.97
2022-07-31T06:30:46.644Z,23.02
2022-07-31T06:31:46.636Z,23.09
2022-07-31T06:32:46.631Z,23.08
2022-07-31T06:33:48.111Z,23.04
2022-07-31T06:34:46.624Z,23.14
2022-07-31T06:35:46.592Z,23.11
2022-07-31T06:36:46.582Z,23.17
2022-07-31T06:37:46.575Z,23.08
2022-07-31T06:38:46.552Z,23.08
2022-07-31T06:39:56.028Z,23.14
2022-07-31T06:40:47.529Z,23.12
2022-07-31T06:41:46.518Z,23.11
2022-07-31T06:42:46.507Z,23.07
2022-07-31T06:43:46.502Z,23.22
2022-07-31T06:44:46.648Z,23.15
2022-07-31T06:45:51.422Z,23.17
2022-07-31T06:46:49.186Z,23.11
2022-07-31T06:47:46.456Z,23.09
2022-07-31T06:48:46.468Z,23.17
2022-07-31T06:49:46.579Z,23.15
2022-07-31T06:50:46.425Z,23.26
2022-07-31T06:51:46.425Z,23.29
2022-07-31T06:52:46.507Z,23.23
2022-07-31T06:53:46.389Z,23.20
2022-07-31T06:54:46.391Z,23.26
2022-07-31T06:55:46.368Z,23.26
2022-07-31T06:56:46.356Z,23.26
2022-07-31T06:57:46.337Z,23.23
2022-07-31T06:58:46.334Z,23.32
2022-07-31T06:59:46.339Z,23.26
2022-07-31T07:00:46.306Z,23.32
2022-07-31T07:01:46.336Z,23.31
2022-07-31T07:02:46.303Z,23.39
2022-07-31T07:03:46.270Z,23.35
2022-07-31T07:05:05.190Z,23.39
2022-07-31T07:05:47.243Z,23.35
2022-07-31T07:06:46.233Z,23.29
2022-07-31T07:07:46.224Z,23.26
2022-07-31T07:08:46.216Z,23.26
2022-07-31T07:09:46.219Z,23.39
2022-07-31T07:10:46.199Z,23.29
2022-07-31T07:11:46.188Z,23.35
2022-07-31T07:12:46.180Z,23.29
2022-07-31T07:13:46.977Z,23.39
2022-07-31T07:14:46.166Z,23.34
2022-07-31T07:15:46.136Z,23.32
2022-07-31T07:16:46.133Z,23.24
2022-07-31T07:17:46.114Z,23.05
2022-07-31T07:18:46.111Z,23.17
2022-07-31T07:19:46.129Z,22.99
2022-07-31T07:20:47.086Z,22.97
2022-07-31T07:21:46.067Z,22.93
2022-07-31T07:22:46.072Z,22.89
2022-07-31T07:23:46.051Z,22.72
2022-07-31T07:24:46.060Z,22.78
2022-07-31T07:25:46.042Z,22.78
2022-07-31T07:26:46.013Z,22.71
2022-07-31T07:27:46.011Z,22.77
2022-07-31T07:28:45.989Z,22.80
2022-07-31T07:29:45.999Z,22.84
2022-07-31T07:30:45.991Z,22.92
2022-07-31T07:31:45.955Z,22.90
2022-07-31T07:32:45.952Z,22.89
2022-07-31T07:33:45.933Z,22.90
2022-07-31T07:34:45.945Z,23.07
2022-07-31T07:35:45.916Z,22.99
2022-07-31T07:36:45.911Z,22.97
2022-07-31T07:37:45.894Z,22.92
2022-07-31T07:38:45.883Z,22.87
2022-07-31T07:39:45.885Z,22.93
2022-07-31T07:40:45.862Z,22.92
2022-07-31T07:41:45.850Z,22.97
2022-07-31T07:42:45.833Z,23.01
2022-07-31T07:43:51.656Z,22.99
2022-07-31T07:44:46.830Z,23.02
2022-07-31T07:45:45.803Z,22.96
2022-07-31T07:46:45.830Z,22.96
2022-07-31T07:48:05.418Z,22.97
2022-07-31T07:48:46.830Z,22.97
2022-07-31T07:49:45.766Z,22.89
2022-07-31T07:50:45.760Z,22.87
2022-07-31T07:51:59.042Z,22.83
2022-07-31T07:52:46.722Z,22.90
2022-07-31T07:53:45.707Z,22.93
2022-07-31T07:54:45.719Z,22.97
2022-07-31T07:55:45.688Z,22.92
2022-07-31T07:56:45.681Z,22.93
2022-07-31T07:57:45.670Z,22.96
2022-07-31T07:58:45.651Z,23.04
2022-07-31T07:59:45.656Z,23.01
2022-07-31T08:00:45.679Z,23.11
2022-07-31T08:01:45.622Z,23.05
2022-07-31T08:03:02.878Z,23.04
2022-07-31T08:03:51.831Z,23.14
2022-07-31T08:04:47.680Z,23.14
2022-07-31T08:05:45.573Z,23.15
2022-07-31T08:06:45.561Z,23.27
2022-07-31T08:07:45.552Z,23.45
2022-07-31T08:08:45.549Z,23.45
2022-07-31T08:09:45.543Z,23.42
2022-07-31T08:10:45.526Z,23.49
2022-07-31T08:11:45.506Z,23.52
2022-07-31T08:12:45.502Z,23.50
2022-07-31T08:13:49.710Z,23.62
2022-07-31T08:14:45.491Z,23.67
2022-07-31T08:15:45.461Z,23.76
2022-07-31T08:16:45.459Z,23.87
2022-07-31T08:17:45.444Z,24.02
2022-07-31T08:18:45.436Z,24.17
2022-07-31T08:19:49.561Z,24.20
2022-07-31T08:20:46.406Z,24.35
2022-07-31T08:21:45.395Z,24.49
2022-07-31T08:22:45.383Z,24.54
2022-07-31T08:23:45.374Z,24.57
2022-07-31T08:24:45.384Z,24.68
2022-07-31T08:25:45.360Z,24.64
2022-07-31T08:26:45.344Z,24.56
2022-07-31T08:27:47.891Z,24.53
2022-07-31T08:28:49.999Z,24.56
2022-07-31T08:29:46.321Z,24.76
2022-07-31T08:30:45.296Z,24.87
2022-07-31T08:31:49.616Z,24.90
2022-07-31T08:32:45.269Z,25.13
2022-07-31T08:33:45.266Z,25.25
2022-07-31T08:34:45.271Z,25.32
2022-07-31T08:35:50.575Z,25.31
2022-07-31T08:36:46.225Z,25.50
2022-07-31T08:37:59.182Z,25.52
2022-07-31T08:38:46.203Z,25.53
2022-07-31T08:39:45.216Z,25.57
2022-07-31T08:40:45.189Z,25.74
2022-07-31T08:41:45.177Z,25.84
2022-07-31T08:42:45.162Z,26.11
2022-07-31T08:44:00.332Z,26.11
2022-07-31T08:44:46.161Z,26.27
2022-07-31T08:45:45.125Z,26.29
2022-07-31T08:46:45.116Z,26.31
2022-07-31T08:47:45.111Z,26.35
2022-07-31T08:48:45.146Z,26.27
2022-07-31T08:49:45.101Z,26.12
2022-07-31T08:50:45.089Z,26.01
2022-07-31T08:51:50.792Z,25.65
2022-07-31T08:52:46.146Z,25.62
2022-07-31T08:53:45.044Z,25.42
2022-07-31T08:54:45.041Z,25.42
2022-07-31T08:55:55.558Z,25.54
2022-07-31T08:56:46.015Z,25.52
2022-07-31T08:57:44.995Z,25.59
2022-07-31T08:58:44.993Z,25.75
2022-07-31T08:59:45.012Z,25.89
2022-07-31T09:00:45.040Z,26.11
2022-07-31T09:01:44.957Z,26.40
2022-07-31T09:02:44.953Z,26.59
2022-07-31T09:03:44.939Z,27.02
2022-07-31T09:04:47.316Z,27.28
2022-07-31T09:05:44.920Z,27.69
2022-07-31T09:06:44.903Z,28.10
2022-07-31T09:07:44.907Z,28.44
2022-07-31T09:08:44.877Z,28.66
2022-07-31T09:09:50.771Z,28.65
2022-07-31T09:10:50.052Z,28.35
2022-07-31T09:11:44.849Z,28.22
2022-07-31T09:12:44.829Z,28.03
2022-07-31T09:13:44.819Z,27.98
2022-07-31T09:14:45.830Z,27.76
2022-07-31T09:15:44.802Z,27.39
2022-07-31T09:16:44.794Z,27.01
2022-07-31T09:17:53.987Z,26.35
2022-07-31T09:18:45.783Z,26.06
2022-07-31T09:19:54.062Z,25.98
2022-07-31T09:20:45.755Z,25.98
2022-07-31T09:21:44.739Z,25.83
2022-07-31T09:22:44.731Z,25.90
2022-07-31T09:23:44.708Z,25.74
2022-07-31T09:24:44.722Z,25.74
2022-07-31T09:25:44.696Z,25.71
2022-07-31T09:26:44.693Z,25.74
2022-07-31T09:27:44.686Z,25.71
2022-07-31T09:28:44.663Z,25.69
2022-07-31T09:29:44.765Z,25.75
2022-07-31T09:30:56.254Z,25.64
2022-07-31T09:31:45.631Z,25.72
2022-07-31T09:32:44.618Z,25.69
2022-07-31T09:33:45.928Z,25.77
2022-07-31T09:34:44.603Z,25.69
2022-07-31T09:35:44.578Z,25.87
2022-07-31T09:36:44.573Z,25.98
2022-07-31T09:37:44.556Z,26.06
2022-07-31T09:38:44.560Z,26.32
2022-07-31T09:39:52.065Z,26.58
2022-07-31T09:40:51.562Z,26.74
2022-07-31T09:41:59.913Z,26.89
2022-07-31T09:42:45.687Z,26.76
2022-07-31T09:43:51.902Z,26.72
2022-07-31T09:44:45.492Z,26.69
2022-07-31T09:45:48.182Z,26.74
2022-07-31T09:46:44.467Z,26.65
2022-07-31T09:47:44.451Z,26.83
2022-07-31T09:48:44.443Z,26.96
2022-07-31T09:49:44.467Z,26.95
2022-07-31T09:50:44.420Z,27.04
2022-07-31T09:51:44.410Z,27.35
2022-07-31T09:52:44.526Z,27.51
2022-07-31T09:53:44.382Z,27.64
2022-07-31T09:54:44.375Z,27.67
2022-07-31T09:55:44.388Z,27.64
2022-07-31T09:56:44.352Z,27.62
2022-07-31T09:57:50.082Z,27.88
2022-07-31T09:58:45.322Z,28.31
2022-07-31T09:59:44.352Z,28.43
2022-07-31T10:00:44.404Z,28.65
2022-07-31T10:01:44.301Z,28.81
2022-07-31T10:02:44.327Z,28.81
2022-07-31T10:03:44.277Z,28.87
2022-07-31T10:04:44.258Z,29.06
2022-07-31T10:05:44.272Z,29.37
2022-07-31T10:06:44.240Z,29.94
2022-07-31T10:07:44.227Z,30.07
2022-07-31T10:08:44.214Z,30.11
2022-07-31T10:09:44.212Z,29.92
2022-07-31T10:10:44.206Z,29.90
2022-07-31T10:11:44.190Z,29.79
2022-07-31T10:12:44.179Z,29.99
2022-07-31T10:13:44.169Z,29.92
2022-07-31T10:14:44.150Z,29.77
2022-07-31T10:15:44.167Z,29.70
2022-07-31T10:16:44.130Z,29.52
2022-07-31T10:17:44.125Z,29.29
2022-07-31T10:18:44.529Z,28.90
2022-07-31T10:19:44.098Z,28.81
2022-07-31T10:20:44.108Z,28.54
2022-07-31T10:21:44.075Z,28.31
2022-07-31T10:22:44.073Z,28.10
2022-07-31T10:23:44.054Z,27.84
2022-07-31T10:24:44.043Z,27.51
2022-07-31T10:25:44.047Z,27.31
2022-07-31T10:27:10.408Z,27.16
2022-07-31T10:27:45.007Z,26.99
2022-07-31T10:28:43.999Z,26.76
2022-07-31T10:29:43.995Z,26.62
2022-07-31T10:30:43.996Z,26.76
2022-07-31T10:31:43.973Z,26.74
2022-07-31T10:32:43.964Z,26.99
2022-07-31T10:33:45.073Z,27.13
2022-07-31T10:34:43.944Z,27.50
2022-07-31T10:35:43.951Z,27.80
2022-07-31T10:36:44.920Z,28.09
2022-07-31T10:37:43.904Z,28.51
2022-07-31T10:38:43.889Z,28.77
2022-07-31T10:39:43.889Z,28.82
2022-07-31T10:40:43.890Z,28.81
2022-07-31T10:41:43.872Z,28.77
2022-07-31T10:42:43.850Z,28.75
2022-07-31T10:43:43.839Z,28.80
2022-07-31T10:44:43.824Z,28.84
2022-07-31T10:45:43.836Z,28.77
2022-07-31T10:46:43.811Z,28.77
2022-07-31T10:47:48.030Z,28.84
2022-07-31T10:48:44.783Z,28.87
2022-07-31T10:49:43.886Z,28.91
2022-07-31T10:50:43.775Z,29.19
2022-07-31T10:51:43.758Z,29.43
2022-07-31T10:52:43.738Z,29.53
2022-07-31T10:53:51.378Z,29.70
2022-07-31T10:54:44.723Z,29.82
2022-07-31T10:55:43.731Z,29.78
2022-07-31T10:56:43.696Z,29.81
2022-07-31T10:57:55.992Z,29.65
2022-07-31T10:58:44.675Z,29.77
2022-07-31T10:59:44.839Z,29.86
2022-07-31T11:00:43.668Z,29.75
2022-07-31T11:01:43.667Z,29.78
2022-07-31T11:02:44.653Z,29.87
2022-07-31T11:03:43.628Z,29.89
2022-07-31T11:04:43.614Z,29.84
2022-07-31T11:06:01.930Z,29.90
2022-07-31T11:06:44.629Z,29.92
2022-07-31T11:07:43.589Z,30.05
2022-07-31T11:08:43.569Z,30.05
2022-07-31T11:09:51.266Z,30.23
2022-07-31T11:10:44.568Z,30.37
2022-07-31T11:11:43.547Z,30.27
2022-07-31T11:12:43.535Z,30.38
2022-07-31T11:13:43.517Z,30.31
2022-07-31T11:14:43.515Z,30.47
2022-07-31T11:15:43.519Z,30.49
2022-07-31T11:16:43.493Z,30.37
2022-07-31T11:18:22.196Z,30.33
2022-07-31T11:18:44.469Z,30.18
2022-07-31T11:19:43.466Z,29.97
2022-07-31T11:20:43.469Z,29.79
2022-07-31T11:21:43.436Z,29.68
2022-07-31T11:22:43.426Z,29.49
2022-07-31T11:23:56.194Z,29.44
2022-07-31T11:24:44.402Z,29.43
2022-07-31T11:25:43.408Z,29.40
2022-07-31T11:26:43.381Z,29.28
2022-07-31T11:27:43.381Z,29.31
2022-07-31T11:28:43.369Z,29.37
2022-07-31T11:30:00.249Z,29.47
2022-07-31T11:30:44.366Z,29.60
2022-07-31T11:31:43.330Z,29.89
2022-07-31T11:32:43.328Z,30.11
2022-07-31T11:33:43.309Z,30.29
2022-07-31T11:34:43.296Z,30.36
2022-07-31T11:35:43.303Z,30.31
2022-07-31T11:36:43.276Z,30.38
2022-07-31T11:37:56.650Z,30.27
2022-07-31T11:38:44.775Z,30.46
2022-07-31T11:39:51.392Z,30.34
2022-07-31T11:40:44.255Z,30.36
2022-07-31T11:41:44.619Z,30.33
2022-07-31T11:42:43.222Z,30.34
2022-07-31T11:43:43.211Z,30.05
2022-07-31T11:44:43.201Z,29.84
2022-07-31T11:45:43.210Z,29.57
2022-07-31T11:46:43.375Z,29.44
2022-07-31T11:48:12.602Z,29.50
2022-07-31T11:48:45.689Z,29.59
2022-07-31T11:49:48.547Z,29.84
2022-07-31T11:50:44.138Z,29.74
2022-07-31T11:51:43.125Z,29.72
2022-07-31T11:52:43.112Z,29.79
2022-07-31T11:53:43.094Z,29.68
2022-07-31T11:54:43.086Z,29.63
2022-07-31T11:55:43.099Z,29.63
2022-07-31T11:56:43.068Z,29.47
2022-07-31T11:57:52.363Z,29.41
2022-07-31T11:58:44.040Z,29.33
2022-07-31T11:59:46.245Z,29.29
2022-07-31T12:00:44.041Z,29.40
2022-07-31T12:01:43.013Z,29.63
2022-07-31T12:02:43.036Z,29.79
2022-07-31T12:03:42.998Z,29.99
2022-07-31T12:04:42.985Z,30.21
2022-07-31T12:05:43.008Z,30.30
2022-07-31T12:06:42.964Z,30.50
2022-07-31T12:07:42.956Z,30.57
2022-07-31T12:08:42.943Z,30.54
2022-07-31T12:10:01.065Z,30.50
2022-07-31T12:10:43.938Z,30.43
2022-07-31T12:11:42.911Z,30.50
2022-07-31T12:12:42.902Z,30.49
2022-07-31T12:13:42.887Z,30.24
2022-07-31T12:14:42.873Z,29.90
2022-07-31T12:15:42.877Z,29.70
2022-07-31T12:16:42.849Z,29.62
2022-07-31T12:17:42.849Z,29.59
2022-07-31T12:18:42.855Z,29.81
2022-07-31T12:19:42.819Z,29.89
2022-07-31T12:20:42.823Z,29.93
2022-07-31T12:21:42.802Z,30.00
2022-07-31T12:22:42.791Z,30.12
2022-07-31T12:23:42.780Z,30.21
2022-07-31T12:24:42.762Z,30.15
2022-07-31T12:25:42.778Z,30.14
2022-07-31T12:26:42.751Z,29.97
2022-07-31T12:27:42.735Z,29.71
2022-07-31T12:28:42.736Z,29.55
2022-07-31T12:29:42.710Z,29.45
2022-07-31T12:30:42.718Z,29.45
2022-07-31T12:31:42.691Z,29.43
2022-07-31T12:32:42.685Z,29.41
2022-07-31T12:33:42.690Z,29.37
2022-07-31T12:34:42.657Z,29.38
2022-07-31T12:35:54.824Z,29.37
2022-07-31T12:36:43.642Z,29.35
2022-07-31T12:37:42.625Z,29.28
2022-07-31T12:38:45.744Z,29.44
2022-07-31T12:39:54.381Z,29.37
2022-07-31T12:40:43.614Z,29.18
2022-07-31T12:41:42.586Z,29.03
2022-07-31T12:42:42.609Z,28.87
2022-07-31T12:43:50.125Z,28.80
2022-07-31T12:44:43.547Z,28.93
2022-07-31T12:45:42.552Z,28.93
2022-07-31T12:46:42.532Z,28.91
2022-07-31T12:47:42.514Z,28.81
2022-07-31T12:48:46.167Z,28.82
2022-07-31T12:49:42.581Z,28.82
2022-07-31T12:50:42.503Z,28.80
2022-07-31T12:51:44.856Z,28.85
2022-07-31T12:52:42.460Z,29.04
2022-07-31T12:53:42.456Z,29.19
2022-07-31T12:54:42.438Z,29.33
2022-07-31T12:55:42.459Z,29.33